Time;durP1;ratioP1;P1;durP2;ratioP2;P2;SDS_P1;SDS_P2;PMS_P1;PMS_P2;Temp;Humidity;BMP_temperature;BMP_pressure;BME280_temperature;BME280_humidity;BME280_pressure;Samples;Min_cycle;Max_cycle;Signal;HPM_P1;HPM_P2
2023/04/15 00:01:10;;;;;;;56.97;23.67;;;;;;;6.47;100.00;99990.00;7396859;19;20023;-70
2023/04/15 00:03:39;;;;;;;64.93;25.77;;;;;;;6.48;100.00;99990.88;7394795;19;20025;-70
2023/04/15 00:06:07;;;;;;;59.13;25.40;;;;;;;6.49;100.00;99989.97;7394722;19;20027;-70
2023/04/15 00:08:38;;;;;;;64.18;25.75;;;;;;;6.50;100.00;99978.69;7394652;19;20010;-71
2023/04/15 00:11:07;;;;;;;65.50;27.55;;;;;;;6.53;100.00;99986.44;7395257;19;20018;-71
2023/04/15 00:13:35;;;;;;;68.15;28.23;;;;;;;6.52;100.00;99969.06;7396670;19;20025;-71
2023/04/15 00:16:04;;;;;;;71.18;28.25;;;;;;;6.54;100.00;99974.28;7395268;19;20014;-71
2023/04/15 00:18:32;;;;;;;70.47;28.80;;;;;;;6.55;100.00;99965.56;7394860;19;20018;-70
2023/04/15 00:21:01;;;;;;;72.72;28.27;;;;;;;6.58;100.00;99970.72;7394406;19;20029;-71
2023/04/15 00:23:30;;;;;;;73.22;29.60;;;;;;;6.58;100.00;99968.13;7393680;19;20474;-70
2023/04/15 00:26:01;;;;;;;75.32;30.63;;;;;;;6.58;100.00;99971.56;7395193;19;20216;-70
2023/04/15 00:28:29;;;;;;;73.00;30.73;;;;;;;6.59;100.00;99969.84;7394628;19;20023;-71
2023/04/15 00:30:58;;;;;;;75.78;30.10;;;;;;;6.59;100.00;99962.88;7396870;19;20066;-71
2023/04/15 00:33:27;;;;;;;73.35;29.63;;;;;;;6.60;100.00;99964.59;7395748;19;20018;-70
2023/04/15 00:35:55;;;;;;;71.10;29.42;;;;;;;6.60;100.00;99961.97;7396645;19;20026;-70
2023/04/15 00:38:23;;;;;;;79.28;30.27;;;;;;;6.60;100.00;99951.56;7394303;19;20090;-70
2023/04/15 00:40:52;;;;;;;74.40;30.65;;;;;;;6.61;100.00;99955.91;7395126;19;20021;-70
2023/04/15 00:43:24;;;;;;;78.75;30.90;;;;;;;6.59;100.00;99962.88;7400150;19;20029;-71
2023/04/15 00:45:55;;;;;;;80.30;31.85;;;;;;;6.63;100.00;99968.88;7402026;19;20506;-71
2023/04/15 00:48:23;;;;;;;79.95;31.15;;;;;;;6.63;100.00;99958.47;7403694;19;20033;-71
2023/04/15 00:50:51;;;;;;;77.35;30.95;;;;;;;6.66;100.00;99958.41;7399512;19;20021;-70
2023/04/15 00:53:20;;;;;;;84.70;31.60;;;;;;;6.65;100.00;99954.94;7394515;19;20021;-71
2023/04/15 00:55:48;;;;;;;85.20;31.90;;;;;;;6.65;100.00;99952.34;7393350;19;20018;-70
2023/04/15 00:58:18;;;;;;;83.45;31.58;;;;;;;6.65;100.00;99948.88;7399710;19;20074;-70
2023/04/15 01:00:53;;;;;;;86.45;32.90;;;;;;;6.66;100.00;99959.28;7400101;19;20078;-71
2023/04/15 01:03:21;;;;;;;78.40;31.83;;;;;;;6.65;100.00;99952.34;7399944;19;20018;-71
2023/04/15 01:05:51;;;;;;;82.07;32.88;;;;;;;6.63;100.00;99953.25;7402310;19;20377;-71
2023/04/15 01:08:20;;;;;;;85.88;32.25;;;;;;;6.64;100.00;99955.81;7399370;19;20551;-71
2023/04/15 01:10:48;;;;;;;84.32;32.10;;;;;;;6.65;100.00;99949.72;7399640;19;20019;-71
2023/04/15 01:13:17;;;;;;;86.35;32.88;;;;;;;6.66;100.00;99947.97;7395356;19;20338;-64
2023/04/15 01:15:45;;;;;;;88.93;33.22;;;;;;;6.66;100.00;99943.63;7401849;19;20015;-64
2023/04/15 01:18:17;;;;;;;84.43;32.88;;;;;;;6.66;100.00;99943.63;7401801;19;20017;-64
2023/04/15 01:20:46;;;;;;;84.72;33.13;;;;;;;6.67;100.00;99941.88;7399372;19;20015;-64
2023/04/15 01:23:15;;;;;;;82.45;32.72;;;;;;;6.67;100.00;99941.88;7398604;19;20018;-64
2023/04/15 01:25:48;;;;;;;86.25;34.35;;;;;;;6.68;100.00;99941.00;7398875;19;20018;-64
2023/04/15 01:28:16;;;;;;;87.97;35.28;;;;;;;6.68;100.00;99943.59;7402043;19;20078;-64
2023/04/15 01:30:45;;;;;;;95.05;34.97;;;;;;;6.68;100.00;99936.66;7401364;19;20025;-64
2023/04/15 01:33:13;;;;;;;80.75;33.30;;;;;;;6.68;100.00;99949.69;7400375;19;20021;-64
2023/04/15 01:35:43;;;;;;;86.90;34.55;;;;;;;6.69;100.00;99937.50;7398517;19;20071;-64
2023/04/15 01:38:12;;;;;;;82.50;32.45;;;;;;;6.70;100.00;99939.22;7398624;19;20023;-65
2023/04/15 01:40:41;;;;;;;83.57;33.65;;;;;;;6.70;100.00;99941.84;7400721;19;20014;-66
2023/04/15 01:43:12;;;;;;;91.60;34.55;;;;;;;6.69;100.00;99932.28;7397839;19;20499;-65
2023/04/15 01:45:41;;;;;;;88.07;33.92;;;;;;;6.68;100.00;99928.84;7398743;19;20014;-65
2023/04/15 01:48:09;;;;;;;90.20;34.47;;;;;;;6.69;100.00;99934.91;7397952;19;20526;-65
2023/04/15 01:50:38;;;;;;;90.97;33.83;;;;;;;6.72;100.00;99936.59;7400159;19;20015;-65
2023/04/15 01:53:07;;;;;;;90.28;34.13;;;;;;;6.72;100.00;99926.16;7399865;19;20051;-65
2023/04/15 01:55:35;;;;;;;84.60;34.17;;;;;;;6.72;100.00;99928.75;7400514;19;20017;-65
2023/04/15 01:58:04;;;;;;;92.88;35.38;;;;;;;6.71;100.00;99916.59;7400119;19;20523;-66
2023/04/15 02:00:41;;;;;;;92.03;34.22;;;;;;;6.71;100.00;99909.66;7400020;19;20010;-65
2023/04/15 02:03:10;;;;;;;81.13;33.85;;;;;;;6.72;100.00;99918.34;7398010;19;20015;-64
2023/04/15 02:05:38;;;;;;;83.80;34.10;;;;;;;6.72;100.00;99913.13;7397341;19;20070;-65
2023/04/15 02:08:07;;;;;;;81.20;33.20;;;;;;;6.72;100.00;99918.34;7397861;19;20495;-66
2023/04/15 02:10:35;;;;;;;88.97;35.70;;;;;;;6.72;100.00;99910.50;7400050;19;20021;-65
2023/04/15 02:13:04;;;;;;;83.93;33.92;;;;;;;6.72;100.00;99910.50;7396557;19;20540;-66
2023/04/15 02:15:32;;;;;;;86.85;34.20;;;;;;;6.72;100.00;99908.75;7400210;19;20029;-65
2023/04/15 02:18:09;;;;;;;85.78;34.40;;;;;;;6.73;100.00;99907.88;7399873;19;20074;-65
2023/04/15 02:20:38;;;;;;;85.03;34.17;;;;;;;6.75;100.00;99915.66;7400029;19;20105;-65
2023/04/15 02:23:07;;;;;;;85.60;34.38;;;;;;;6.76;100.00;99907.84;7396681;19;20041;-65
2023/04/15 02:25:36;;;;;;;83.78;33.85;;;;;;;6.77;100.00;99911.28;7399444;19;20017;-65
2023/04/15 02:28:05;;;;;;;92.97;35.47;;;;;;;6.78;100.00;99915.63;7399091;19;20082;-65
2023/04/15 02:30:33;;;;;;;86.50;34.80;;;;;;;6.78;100.00;99911.25;7396671;19;20031;-65
2023/04/15 02:33:04;;;;;;;83.60;33.70;;;;;;;6.79;100.00;99907.75;7396824;19;20090;-65
2023/04/15 02:35:33;;;;;;;92.45;36.08;;;;;;;6.80;100.00;99909.47;7396436;19;20010;-65
2023/04/15 02:38:02;;;;;;;98.65;36.03;;;;;;;6.81;100.00;99916.41;7398965;19;20089;-65
2023/04/15 02:40:30;;;;;;;91.78;35.90;;;;;;;6.82;100.00;99906.84;7398889;19;20019;-65
2023/04/15 02:42:59;;;;;;;97.60;37.05;;;;;;;6.84;100.00;99913.75;7396624;19;20041;-66
2023/04/15 02:45:27;;;;;;;92.60;35.83;;;;;;;6.86;100.00;99918.91;7396304;19;20015;-66
2023/04/15 02:47:56;;;;;;;92.78;36.30;;;;;;;6.88;100.00;99916.31;7398292;19;20553;-65
2023/04/15 02:50:27;;;;;;;89.53;36.65;;;;;;;6.89;100.00;99908.44;7398612;19;20023;-66
2023/04/15 02:52:55;;;;;;;98.82;38.28;;;;;;;6.90;100.00;99918.00;7396806;19;20019;-65
2023/04/15 02:55:24;;;;;;;100.00;40.08;;;;;;;6.89;100.00;99911.03;7397106;19;20078;-66
2023/04/15 02:57:53;;;;;;;102.78;40.00;;;;;;;6.91;100.00;99913.63;7398456;19;20030;-66
2023/04/15 03:00:24;;;;;;;100.13;39.30;;;;;;;6.91;100.00;99905.78;7396232;19;20022;-69
2023/04/15 03:02:55;;;;;;;103.40;40.40;;;;;;;6.91;100.00;99909.25;7397541;19;20377;-68
2023/04/15 03:05:26;;;;;;;110.28;41.85;;;;;;;6.91;100.00;99911.84;7396037;19;20034;-68
2023/04/15 03:07:55;;;;;;;105.95;40.78;;;;;;;6.91;100.00;99906.63;7397468;19;20014;-68
2023/04/15 03:10:24;;;;;;;106.97;41.30;;;;;;;6.90;100.00;99907.56;7396102;19;20019;-68
2023/04/15 03:12:52;;;;;;;104.82;41.13;;;;;;;6.90;100.00;99910.16;7397118;19;20039;-66
2023/04/15 03:15:21;;;;;;;113.95;43.10;;;;;;;6.91;100.00;99908.41;7397851;19;20010;-67
2023/04/15 03:17:50;;;;;;;118.68;43.53;;;;;;;6.91;100.00;99908.41;7397455;19;20435;-67
2023/04/15 03:20:18;;;;;;;110.57;43.72;;;;;;;6.90;100.00;99910.16;7397669;19;20024;-67
2023/04/15 03:22:49;;;;;;;113.45;44.60;;;;;;;6.91;100.00;99911.84;7397383;19;20032;-66
2023/04/15 03:25:18;;;;;;;118.07;45.70;;;;;;;6.92;100.00;99912.72;7395593;19;20419;-67
2023/04/15 03:27:46;;;;;;;120.65;44.47;;;;;;;6.92;100.00;99912.72;7397506;19;20027;-67
2023/04/15 03:30:15;;;;;;;126.20;46.85;;;;;;;6.92;100.00;99910.13;7397408;19;20018;-67
2023/04/15 03:32:43;;;;;;;121.32;47.10;;;;;;;6.93;100.00;99910.09;7397207;19;20036;-67
2023/04/15 03:35:12;;;;;;;131.60;48.97;;;;;;;6.93;100.00;99909.25;7397101;19;20107;-66
2023/04/15 03:37:40;;;;;;;131.93;46.50;;;;;;;6.93;100.00;99907.47;7396790;19;20018;-67
2023/04/15 03:40:13;;;;;;;130.65;49.60;;;;;;;6.95;100.00;99910.94;7395384;19;20022;-67
2023/04/15 03:42:41;;;;;;;133.18;49.00;;;;;;;6.96;100.00;99899.63;7396483;19;20035;-66
2023/04/15 03:45:11;;;;;;;132.43;48.45;;;;;;;6.97;100.00;99906.53;7394475;19;20028;-67
2023/04/15 03:47:39;;;;;;;139.95;49.30;;;;;;;6.99;100.00;99903.91;7396894;19;20018;-67
2023/04/15 03:50:09;;;;;;;127.15;49.50;;;;;;;6.98;100.00;99905.63;7395074;19;20022;-66
2023/04/15 03:52:37;;;;;;;139.10;52.08;;;;;;;6.98;100.00;99905.63;7396031;19;20481;-67
2023/04/15 03:55:07;;;;;;;135.85;51.30;;;;;;;6.99;100.00;99906.50;7396534;19;20027;-67
2023/04/15 03:57:38;;;;;;;134.45;50.47;;;;;;;7.00;100.00;99910.81;7396023;19;20031;-67
2023/04/15 04:00:08;;;;;;;132.13;49.80;;;;;;;7.01;100.00;99915.16;7396281;19;20537;-67
2023/04/15 04:02:36;;;;;;;135.73;49.88;;;;;;;7.01;100.00;99908.19;7395931;19;20031;-67
2023/04/15 04:05:05;;;;;;;151.40;54.03;;;;;;;7.04;100.00;99919.44;7395075;19;20041;-67
2023/04/15 04:07:34;;;;;;;140.63;50.10;;;;;;;7.04;100.00;99914.22;7396319;19;20027;-67
2023/04/15 04:10:02;;;;;;;149.73;53.10;;;;;;;7.05;100.00;99915.94;7395816;19;20077;-67
2023/04/15 04:12:41;;;;;;;144.95;53.40;;;;;;;7.05;100.00;99918.56;7394161;19;20015;-67
2023/04/15 04:15:10;;;;;;;140.10;50.47;;;;;;;7.06;100.00;99912.44;7394378;19;20478;-67
2023/04/15 04:17:39;;;;;;;141.60;51.15;;;;;;;7.06;100.00;99909.84;7395660;19;20014;-67
2023/04/15 04:20:09;;;;;;;137.77;51.38;;;;;;;7.06;100.00;99912.44;7393934;19;20018;-67
2023/04/15 04:22:40;;;;;;;134.57;51.25;;;;;;;7.07;100.00;99911.56;7395597;19;20035;-67
2023/04/15 04:25:10;;;;;;;142.70;52.60;;;;;;;7.06;100.00;99910.69;7394301;19;20048;-67
2023/04/15 04:27:41;;;;;;;145.35;51.67;;;;;;;7.07;100.00;99917.63;7395605;19;20015;-67
2023/04/15 04:30:10;;;;;;;143.20;52.30;;;;;;;7.07;100.00;99922.00;7395314;19;20035;-67
2023/04/15 04:32:39;;;;;;;155.25;54.42;;;;;;;7.09;100.00;99921.06;7393742;19;20031;-67
2023/04/15 04:35:08;;;;;;;145.20;52.47;;;;;;;7.09;100.00;99921.06;7393381;19;20014;-66
2023/04/15 04:37:36;;;;;;;138.95;52.83;;;;;;;7.11;100.00;99921.88;7393478;19;20014;-67
2023/04/15 04:40:06;;;;;;;145.88;52.75;;;;;;;7.12;100.00;99925.38;7395372;19;20041;-67
2023/04/15 04:42:35;;;;;;;146.55;53.03;;;;;;;7.11;100.00;99921.88;7393503;19;20074;-67
2023/04/15 04:45:07;;;;;;;149.57;53.72;;;;;;;7.12;100.00;99914.94;7394103;19;20033;-67
2023/04/15 04:47:35;;;;;;;148.25;53.80;;;;;;;7.14;100.00;99919.22;7393683;19;20018;-67
2023/04/15 04:50:04;;;;;;;148.55;54.50;;;;;;;7.14;100.00;99920.97;7395365;19;20086;-66
2023/04/15 04:52:33;;;;;;;148.50;53.38;;;;;;;7.15;100.00;99922.69;7394633;19;20027;-66
2023/04/15 04:55:01;;;;;;;147.05;55.95;;;;;;;7.17;100.00;99923.53;7393066;19;20019;-66
2023/04/15 04:57:30;;;;;;;142.60;54.35;;;;;;;7.16;100.00;99919.19;7394895;19;20027;-66
2023/04/15 04:59:58;;;;;;;140.50;54.47;;;;;;;7.18;100.00;99925.25;7394662;19;20014;-67
2023/04/15 05:02:29;;;;;;;141.45;52.92;;;;;;;7.18;100.00;99917.41;7394656;19;20011;-67
2023/04/15 05:04:58;;;;;;;136.80;53.55;;;;;;;7.20;100.00;99920.84;7392792;19;20031;-67
2023/04/15 05:07:26;;;;;;;137.27;53.42;;;;;;;7.22;100.00;99920.84;7392646;19;20019;-67
2023/04/15 05:09:55;;;;;;;143.20;52.92;;;;;;;7.23;100.00;99931.22;7392585;19;20051;-67
2023/04/15 05:12:24;;;;;;;139.07;52.67;;;;;;;7.24;100.00;99930.34;7392464;19;20015;-68
2023/04/15 05:14:52;;;;;;;141.45;53.63;;;;;;;7.27;100.00;99940.69;7391811;19;20011;-68
2023/04/15 05:17:21;;;;;;;140.00;51.67;;;;;;;7.28;100.00;99932.00;7394224;19;20014;-67
2023/04/15 05:19:52;;;;;;;133.32;51.67;;;;;;;7.31;100.00;99939.72;7391755;19;20490;-67
2023/04/15 05:22:21;;;;;;;141.75;53.75;;;;;;;7.32;100.00;99938.84;7394618;19;20113;-67
2023/04/15 05:24:49;;;;;;;135.35;53.42;;;;;;;7.36;100.00;99936.19;7391852;19;20026;-67
2023/04/15 05:27:18;;;;;;;134.30;53.58;;;;;;;7.38;100.00;99947.44;7391482;19;20014;-67
2023/04/15 05:29:46;;;;;;;131.07;51.05;;;;;;;7.39;100.00;99931.75;7393869;19;20015;-67
2023/04/15 05:32:15;;;;;;;130.23;54.58;;;;;;;7.42;100.00;99933.41;7393703;19;20022;-67
2023/04/15 05:34:43;;;;;;;135.82;53.13;;;;;;;7.46;100.00;99927.25;7391602;19;20018;-67
2023/04/15 05:37:14;;;;;;;129.05;52.13;;;;;;;7.47;100.00;99935.06;7393398;19;20011;-67
2023/04/15 05:39:43;;;;;;;128.07;52.25;;;;;;;7.51;100.00;99935.84;7391902;19;20026;-67
2023/04/15 05:42:11;;;;;;;132.05;53.67;;;;;;;7.54;100.00;99929.69;7391279;19;20022;-67
2023/04/15 05:44:40;;;;;;;125.55;52.80;;;;;;;7.57;100.00;99938.31;7395900;19;20450;-67
2023/04/15 05:47:09;;;;;;;126.45;51.25;;;;;;;7.59;100.00;99926.09;7400743;19;20015;-68
2023/04/15 05:49:38;;;;;;;118.47;50.90;;;;;;;7.62;100.00;99927.75;7400613;19;20019;-67
2023/04/15 05:52:07;;;;;;;119.68;50.05;;;;;;;7.63;100.00;99929.47;7400270;19;20015;-68
2023/04/15 05:54:38;;;;;;;119.40;50.67;;;;;;;7.65;100.00;99928.56;7397871;19;20430;-67
2023/04/15 05:57:07;;;;;;;110.53;49.10;;;;;;;7.70;100.00;99932.84;7398374;19;20090;-68
2023/04/15 05:59:35;;;;;;;118.32;48.03;;;;;;;7.72;100.00;99926.69;7400420;19;20015;-68
2023/04/15 06:02:04;;;;;;;105.25;48.47;;;;;;;7.73;100.00;99930.13;7399790;19;20014;-67
2023/04/15 06:04:32;;;;;;;97.00;47.47;;;;;;;7.78;100.00;99942.19;7396839;19;20018;-67
2023/04/15 06:07:01;;;;;;;112.40;47.95;;;;;;;7.81;100.00;99946.50;7397757;19;20022;-67
2023/04/15 06:09:30;;;;;;;101.55;45.78;;;;;;;7.84;100.00;99935.97;7397656;19;20086;-68
2023/04/15 06:12:01;;;;;;;100.20;45.53;;;;;;;7.90;100.00;99945.41;7397056;19;20481;-67
2023/04/15 06:14:30;;;;;;;92.97;44.42;;;;;;;7.94;100.00;99947.06;7396842;19;20360;-68
2023/04/15 06:16:58;;;;;;;81.60;41.08;;;;;;;7.98;100.00;99953.94;7397638;19;20026;-67
2023/04/15 06:19:27;;;;;;;88.30;44.53;;;;;;;8.02;100.00;99945.13;7399327;19;20014;-67
2023/04/15 06:21:55;;;;;;;86.65;42.70;;;;;;;8.05;100.00;99945.06;7398578;19;20074;-68
2023/04/15 06:24:24;;;;;;;84.07;44.03;;;;;;;8.11;100.00;99951.88;7396682;19;20506;-68
2023/04/15 06:26:52;;;;;;;80.53;42.55;;;;;;;8.14;100.00;99955.28;7397165;19;20024;-68
2023/04/15 06:29:24;;;;;;;88.57;41.63;;;;;;;8.18;100.00;99961.28;7399201;19;20022;-67
2023/04/15 06:31:52;;;;;;;76.38;40.60;;;;;;;8.21;100.00;99955.97;7399754;19;20393;-67
2023/04/15 06:34:21;;;;;;;75.88;42.40;;;;;;;8.25;100.00;99959.38;7396807;19;20019;-67
2023/04/15 06:36:49;;;;;;;70.13;39.55;;;;;;;8.28;100.00;99960.16;7396888;19;20036;-67
2023/04/15 06:39:18;;;;;;;67.65;39.80;;;;;;;8.31;100.00;99961.84;7396668;19;20021;-67
2023/04/15 06:41:46;;;;;;;66.57;38.08;;;;;;;8.34;100.00;99961.78;7399001;19;20019;-68
2023/04/15 06:44:15;;;;;;;61.35;37.08;;;;;;;8.39;100.00;99957.28;7396787;19;20519;-67
2023/04/15 06:46:46;;;;;;;56.55;36.90;;;;;;;8.42;100.00;99961.59;7396720;19;20027;-67
2023/04/15 06:49:14;;;;;;;53.25;34.17;;;;;;;8.46;100.00;99973.72;7398504;19;20014;-67
2023/04/15 06:51:44;;;;;;;51.17;34.38;;;;;;;8.48;100.00;99964.94;7398817;19;20015;-67
2023/04/15 06:54:13;;;;;;;57.97;35.95;;;;;;;8.55;100.00;99970.00;7395040;19;20481;-67
2023/04/15 06:56:41;;;;;;;48.20;32.97;;;;;;;8.58;100.00;99970.78;7398034;19;20390;-67
2023/04/15 06:59:10;;;;;;;48.15;33.13;;;;;;;8.60;100.00;99974.19;7396416;19;20018;-67
2023/04/15 07:01:38;;;;;;;41.47;29.95;;;;;;;8.60;100.00;99974.19;7397997;19;20017;-67
2023/04/15 07:04:09;;;;;;;40.33;30.02;;;;;;;8.61;100.00;99970.69;7396683;19;20032;-67
2023/04/15 07:06:38;;;;;;;39.28;29.20;;;;;;;8.63;100.00;99984.59;7395915;19;20014;-68
2023/04/15 07:09:07;;;;;;;36.55;27.30;;;;;;;8.64;100.00;99978.47;7397587;19;20041;-68
2023/04/15 07:11:36;;;;;;;38.78;28.13;;;;;;;8.66;100.00;99986.28;7397410;19;20022;-67
2023/04/15 07:14:05;;;;;;;37.90;28.20;;;;;;;8.69;100.00;99993.19;7395700;19;20014;-67
2023/04/15 07:16:33;;;;;;;35.40;27.05;;;;;;;8.70;100.00;99984.44;7395837;19;20029;-67
2023/04/15 07:19:02;;;;;;;37.67;26.92;;;;;;;8.71;100.00;99989.63;7395751;19;20027;-67
2023/04/15 07:21:34;;;;;;;35.40;27.00;;;;;;;8.73;100.00;99986.97;7397252;19;20014;-68
2023/04/15 07:24:02;;;;;;;35.10;26.65;;;;;;;8.76;100.00;99989.50;7395339;19;20045;-67
2023/04/15 07:26:31;;;;;;;33.95;25.75;;;;;;;8.78;100.00;99998.16;7395831;19;20023;-68
2023/04/15 07:28:59;;;;;;;34.15;25.98;;;;;;;8.76;100.00;99986.91;7397221;19;20022;-68
2023/04/15 07:31:28;;;;;;;30.05;23.98;;;;;;;8.81;100.00;100000.72;7397261;19;20369;-68
2023/04/15 07:33:57;;;;;;;30.73;23.42;;;;;;;8.82;100.00;99999.81;7395609;19;20014;-68
2023/04/15 07:36:25;;;;;;;30.88;24.45;;;;;;;8.82;100.00;100002.44;7396619;19;20611;-68
2023/04/15 07:38:57;;;;;;;29.08;23.08;;;;;;;8.82;100.00;100005.03;7396379;19;20023;-68
2023/04/15 07:41:25;;;;;;;31.40;23.55;;;;;;;8.82;100.00;100002.44;7396574;19;20502;-68
2023/04/15 07:43:54;;;;;;;28.83;22.63;;;;;;;8.82;100.00;99997.19;7395314;19;20014;-68
2023/04/15 07:46:23;;;;;;;28.92;23.73;;;;;;;8.82;100.00;99994.59;7395315;19;20026;-68
2023/04/15 07:48:52;;;;;;;28.38;23.20;;;;;;;8.83;100.00;99996.28;7396573;19;20022;-68
2023/04/15 07:51:21;;;;;;;30.52;23.13;;;;;;;8.88;100.00;100001.41;7394227;19;20075;-69
2023/04/15 07:53:50;;;;;;;27.63;22.63;;;;;;;8.86;100.00;99988.38;7395170;19;20022;-68
2023/04/15 07:56:21;;;;;;;26.80;22.55;;;;;;;8.91;100.00;100011.75;7395321;19;20021;-67
2023/04/15 07:58:55;;;;;;;30.20;23.02;;;;;;;8.91;100.00;100007.41;7394001;19;20038;-68
2023/04/15 08:01:24;;;;;;;26.65;22.45;;;;;;;8.92;100.00;100010.88;7396219;19;20027;-68
2023/04/15 08:03:53;;;;;;;25.60;21.42;;;;;;;8.93;100.00;100017.81;7394232;19;20031;-68
2023/04/15 08:06:22;;;;;;;28.23;22.35;;;;;;;8.94;100.00;100011.69;7392084;19;20074;-68
2023/04/15 08:08:50;;;;;;;28.40;22.85;;;;;;;8.95;100.00;100016.88;7395061;19;20077;-68
2023/04/15 08:11:22;;;;;;;25.15;21.73;;;;;;;8.99;100.00;100022.91;7395712;19;20018;-69
2023/04/15 08:13:50;;;;;;;25.60;21.70;;;;;;;9.00;100.00;100023.75;7394111;19;20038;-67
2023/04/15 08:16:21;;;;;;;24.85;21.70;;;;;;;9.02;100.00;100014.94;7395272;19;20015;-68
2023/04/15 08:18:50;;;;;;;23.30;20.77;;;;;;;9.03;100.00;100021.06;7395870;19;20015;-66
2023/04/15 08:21:20;;;;;;;25.00;21.02;;;;;;;9.03;100.00;100026.28;7393873;19;20011;-68
2023/04/15 08:23:51;;;;;;;23.95;20.35;;;;;;;9.03;100.00;100026.28;7393966;19;20028;-67
2023/04/15 08:26:23;;;;;;;25.02;21.27;;;;;;;9.02;100.00;100033.25;7394639;19;20033;-67
2023/04/15 08:28:51;;;;;;;24.50;20.55;;;;;;;9.01;100.00;100030.69;7393493;19;20039;-67
2023/04/15 08:31:21;;;;;;;24.40;20.20;;;;;;;9.01;100.00;100033.31;7395219;19;20027;-68
2023/04/15 08:33:50;;;;;;;22.95;20.25;;;;;;;8.99;100.00;100037.75;7394524;19;20026;-67
2023/04/15 08:36:19;;;;;;;26.80;21.38;;;;;;;8.98;100.00;100031.63;7393544;19;20015;-67
2023/04/15 08:38:47;;;;;;;25.17;20.75;;;;;;;8.97;100.00;100035.16;7395169;19;20019;-68
2023/04/15 08:41:26;;;;;;;26.20;20.52;;;;;;;8.96;100.00;100025.59;7394882;19;20383;-67
2023/04/15 08:43:58;;;;;;;28.05;22.52;;;;;;;8.93;100.00;100029.16;7394084;19;20037;-68
2023/04/15 08:46:27;;;;;;;25.30;20.38;;;;;;;8.93;100.00;100029.16;7392748;19;20435;-67
2023/04/15 08:48:59;;;;;;;24.42;20.27;;;;;;;8.94;100.00;100038.69;7394340;19;20485;-67
2023/04/15 08:51:28;;;;;;;24.20;20.90;;;;;;;8.94;100.00;100037.84;7394269;19;20506;-67
2023/04/15 08:53:57;;;;;;;27.52;22.40;;;;;;;8.97;100.00;100043.00;7393197;19;20022;-70
2023/04/15 08:56:32;;;;;;;28.90;22.05;;;;;;;8.97;100.00;100050.84;7392577;19;20077;-70
2023/04/15 08:59:01;;;;;;;26.45;21.38;;;;;;;8.98;100.00;100054.34;7392859;19;20023;-71
2023/04/15 09:01:31;;;;;;;28.48;21.58;;;;;;;8.99;100.00;100054.28;7392952;19;20018;-69
2023/04/15 09:04:00;;;;;;;25.42;21.42;;;;;;;8.99;100.00;100058.69;7393616;19;20026;-67
2023/04/15 09:06:29;;;;;;;25.77;22.15;;;;;;;8.99;100.00;100058.69;7392329;19;20015;-69
2023/04/15 09:08:57;;;;;;;28.63;22.45;;;;;;;8.99;100.00;100054.28;7394091;19;20014;-67
2023/04/15 09:11:29;;;;;;;28.48;21.80;;;;;;;9.01;100.00;100056.84;7393924;19;20031;-68
2023/04/15 09:13:58;;;;;;;26.33;21.92;;;;;;;9.01;100.00;100060.34;7392550;19;20022;-70
2023/04/15 09:16:27;;;;;;;26.58;22.15;;;;;;;9.04;100.00;100064.66;7393862;19;20086;-68
2023/04/15 09:18:55;;;;;;;28.58;23.58;;;;;;;9.04;100.00;100068.09;7399706;19;20034;-68
2023/04/15 09:21:25;;;;;;;25.38;21.90;;;;;;;9.04;100.00;100064.66;7401662;19;20035;-68
2023/04/15 09:23:58;;;;;;;27.77;21.80;;;;;;;9.07;100.00;100057.59;7398568;19;20380;-68
2023/04/15 09:26:39;;;;;;;30.17;22.53;;;;;;;9.08;100.00;100068.91;7398818;19;20026;-69
2023/04/15 09:29:09;;;;;;;29.08;23.80;;;;;;;9.09;100.00;100070.63;7400675;19;20015;-67
2023/04/15 09:31:38;;;;;;;25.83;21.50;;;;;;;9.09;100.00;100071.47;7401140;19;20015;-68
2023/04/15 09:34:07;;;;;;;25.73;21.95;;;;;;;9.09;100.00;100081.94;7399254;19;20018;-67
2023/04/15 09:36:53;;;;;;;29.83;23.80;;;;;;;9.09;100.00;100086.31;7400762;19;20023;-67
2023/04/15 09:39:22;;;;;;;26.88;22.83;;;;;;;9.08;100.00;100085.44;7398013;19;20356;-67
2023/04/15 09:42:10;;;;;;;25.70;21.80;;;;;;;9.08;100.00;100088.06;7400706;19;20010;-69
2023/04/15 09:44:39;;;;;;;24.75;21.38;;;;;;;9.07;100.00;100088.09;7398093;19;20074;-69
2023/04/15 09:47:08;;;;;;;28.52;21.50;;;;;;;9.04;100.00;100091.66;7398311;19;20014;-67
2023/04/15 09:49:57;;;;;;;23.58;20.92;;;;;;;9.04;100.00;100090.81;7397351;19;20561;-67
2023/04/15 09:52:26;;;;;;;25.63;22.00;;;;;;;9.03;100.00;100095.16;7400646;19;20019;-68
2023/04/15 09:54:55;;;;;;;24.83;21.10;;;;;;;9.04;100.00;100101.28;7397397;19;20018;-68
2023/04/15 09:57:27;;;;;;;26.48;22.35;;;;;;;9.03;100.00;100104.78;7399739;19;20026;-68
2023/04/15 09:59:55;;;;;;;23.98;21.38;;;;;;;9.02;100.00;100105.69;7399590;19;20014;-68
2023/04/15 10:02:24;;;;;;;27.10;21.90;;;;;;;9.02;100.00;100103.06;7397531;19;20022;-68
2023/04/15 10:04:54;;;;;;;25.85;22.10;;;;;;;9.03;100.00;100112.63;7397343;19;20019;-68
2023/04/15 10:07:24;;;;;;;28.50;23.00;;;;;;;9.05;100.00;100110.81;7398117;19;20022;-68
2023/04/15 10:09:52;;;;;;;27.25;23.25;;;;;;;9.06;100.00;100118.66;7399769;19;20035;-68
2023/04/15 10:12:21;;;;;;;25.35;21.75;;;;;;;9.07;100.00;100116.88;7397566;19;20015;-73
2023/04/15 10:14:58;;;;;;;29.55;23.98;;;;;;;9.09;100.00;100117.72;7397224;19;20023;-68
2023/04/15 10:17:32;;;;;;;27.30;23.02;;;;;;;9.11;100.00;100122.00;7400324;19;20014;-68
2023/04/15 10:20:03;;;;;;;;;;;;;;;9.12;100.00;100122.84;7401089;19;20041;-67
2023/04/15 10:22:32;;;;;;;27.20;23.20;;;;;;;9.13;100.00;100127.19;7400052;19;19922;-68
2023/04/15 10:25:01;;;;;;;27.58;23.65;;;;;;;9.13;100.00;100125.44;7400172;19;20018;-68
2023/04/15 10:27:30;;;;;;;26.00;22.65;;;;;;;9.15;100.00;100119.31;7398908;19;20021;-68
2023/04/15 10:30:03;;;;;;;27.80;22.92;;;;;;;9.15;100.00;100128.03;7397307;19;20049;-68
2023/04/15 10:32:32;;;;;;;30.08;23.25;;;;;;;9.16;100.00;100129.72;7398470;19;20017;-68
2023/04/15 10:35:01;;;;;;;27.80;24.13;;;;;;;9.19;100.00;100131.44;7397633;19;20035;-68
2023/04/15 10:37:37;;;;;;;27.90;24.90;;;;;;;9.19;100.00;100132.28;7398506;19;20031;-68
2023/04/15 10:40:27;;;;;;;28.42;23.98;;;;;;;9.20;100.00;100131.38;7398222;19;20481;-68
2023/04/15 10:42:57;;;;;;;30.02;24.92;;;;;;;9.21;100.00;100133.13;7397171;19;20018;-67
2023/04/15 10:45:33;;;;;;;32.95;25.83;;;;;;;9.20;100.00;100131.38;7396468;19;20038;-68
2023/04/15 10:48:04;;;;;;;27.45;23.38;;;;;;;9.23;100.00;100135.69;7396950;19;20014;-68
2023/04/15 10:50:34;;;;;;;29.60;23.70;;;;;;;9.24;100.00;100140.03;7400028;19;20018;-69
2023/04/15 10:53:05;;;;;;;26.98;23.08;;;;;;;9.25;100.00;100139.09;7398262;19;20018;-68
2023/04/15 10:55:35;;;;;;;27.65;22.98;;;;;;;9.26;100.00;100140.81;7398685;19;20026;-68
2023/04/15 10:58:04;;;;;;;25.88;22.27;;;;;;;9.26;100.00;100135.59;7398138;19;20482;-68
2023/04/15 11:00:39;;;;;;;27.60;23.38;;;;;;;9.28;100.00;100145.13;7398452;19;20022;-69
2023/04/15 11:03:10;;;;;;;25.95;22.17;;;;;;;9.30;100.00;100145.06;7395923;19;20370;-68
2023/04/15 11:05:53;;;;;;;24.70;22.00;;;;;;;9.33;100.00;100149.41;7397744;19;20010;-68
2023/04/15 11:08:22;;;;;;;24.80;21.52;;;;;;;9.35;100.00;100144.97;7395619;19;20014;-68
2023/04/15 11:10:55;;;;;;;24.15;21.25;;;;;;;9.38;100.00;100155.38;7397818;19;20082;-68
2023/04/15 11:13:27;;;;;;;25.75;22.48;;;;;;;9.39;100.00;100157.06;7395175;19;20544;-67
2023/04/15 11:16:03;;;;;;;28.17;23.90;;;;;;;9.41;100.00;100153.50;7395259;19;20007;-68
2023/04/15 11:18:36;;;;;;;26.63;22.13;;;;;;;9.41;100.00;100153.50;7396914;19;20489;-68
2023/04/15 11:21:08;;;;;;;25.80;23.00;;;;;;;9.42;100.00;100159.63;7397306;19;20485;-68
2023/04/15 11:23:40;;;;;;;26.65;22.30;;;;;;;9.41;100.00;100166.59;7396648;19;20031;-69